createdAt,value
2022-12-20T00:01:28.832Z,101625.50
2022-12-20T00:05:45.092Z,101622.00
2022-12-20T00:10:01.589Z,101629.59
2022-12-20T00:14:18.230Z,101614.59
2022-12-20T00:18:35.030Z,101601.78
2022-12-20T00:22:51.146Z,101591.91
2022-12-20T00:27:07.423Z,101600.50
2022-12-20T00:31:24.956Z,101597.62
2022-12-20T00:35:43.533Z,101591.69
2022-12-20T00:39:59.897Z,101587.56
2022-12-20T00:44:16.117Z,101572.41
2022-12-20T00:48:33.249Z,101565.25
2022-12-20T00:52:49.597Z,101561.41
2022-12-20T00:57:05.867Z,101563.56
2022-12-20T01:01:28.499Z,101552.81
2022-12-20T01:05:55.924Z,101568.03
2022-12-20T01:10:12.373Z,101560.62
2022-12-20T01:14:28.548Z,101566.59
2022-12-20T01:18:44.866Z,101557.03
2022-12-20T01:23:01.147Z,101543.28
2022-12-20T01:27:17.275Z,101546.69
2022-12-20T01:31:34.068Z,101537.06
2022-12-20T01:36:21.104Z,101507.03
2022-12-20T01:40:40.128Z,101502.84
2022-12-20T01:44:58.845Z,101503.28
2022-12-20T01:49:19.815Z,101504.97
2022-12-20T01:53:36.003Z,101509.72
2022-12-20T01:58:12.455Z,101508.66
2022-12-20T02:02:28.891Z,101507.66
2022-12-20T02:06:45.199Z,101501.19
2022-12-20T02:11:13.517Z,101502.34
2022-12-20T02:15:56.745Z,101502.34
2022-12-20T02:20:49.607Z,101494.72
2022-12-20T02:25:37.554Z,101483.31
2022-12-20T02:30:16.145Z,101473.66
2022-12-20T02:34:34.142Z,101463.59
2022-12-20T02:38:51.436Z,101441.22
2022-12-20T02:43:29.292Z,101442.06
2022-12-20T02:47:59.281Z,101430.69
2022-12-20T02:52:15.813Z,101429.91
2022-12-20T02:56:48.907Z,101423.78
2022-12-20T03:01:27.923Z,101429.16
2022-12-20T03:05:47.066Z,101433.19
2022-12-20T03:10:03.241Z,101441.22
2022-12-20T03:14:19.985Z,101448.13
2022-12-20T03:18:36.181Z,101459.84
2022-12-20T03:22:52.480Z,101447.25
2022-12-20T03:27:09.332Z,101425.44
2022-12-20T03:31:25.790Z,101420.41
2022-12-20T03:35:42.234Z,101404.78
2022-12-20T03:39:58.533Z,101426.97
2022-12-20T03:44:14.741Z,101425.81
2022-12-20T03:48:30.967Z,101402.97
2022-12-20T03:52:47.171Z,101395.72
2022-12-20T03:57:03.320Z,101371.75
2022-12-20T04:01:28.567Z,101370.34
2022-12-20T04:05:44.878Z,101382.47
2022-12-20T04:10:01.059Z,101386.19
2022-12-20T04:14:17.317Z,101388.22
2022-12-20T04:18:33.497Z,101383.13
2022-12-20T04:22:51.072Z,101382.75
2022-12-20T04:27:07.348Z,101377.41
2022-12-20T04:31:24.580Z,101376.63
2022-12-20T04:35:41.014Z,101375.44
2022-12-20T04:39:58.557Z,101376.25
2022-12-20T04:44:14.768Z,101391.66
2022-12-20T04:48:56.253Z,101384.41
2022-12-20T04:53:25.758Z,101389.03
2022-12-20T04:57:41.945Z,101394.91
2022-12-20T05:01:58.242Z,101398.03
2022-12-20T05:06:15.227Z,101391.56
2022-12-20T05:10:31.573Z,101387.22
2022-12-20T05:14:47.720Z,101390.09
2022-12-20T05:19:04.846Z,101375.56
2022-12-20T05:23:39.480Z,101379.91
2022-12-20T05:27:58.749Z,101382.47
2022-12-20T05:32:15.099Z,101381.09
2022-12-20T05:36:31.416Z,101387.28
2022-12-20T05:40:49.503Z,101385.28
2022-12-20T05:45:06.434Z,101370.94
2022-12-20T05:49:22.651Z,101366.41
2022-12-20T05:53:38.868Z,101371.81
2022-12-20T05:57:54.983Z,101365.13
2022-12-20T06:02:12.511Z,101354.72
2022-12-20T06:06:28.848Z,101351.47
2022-12-20T06:10:45.010Z,101331.81
2022-12-20T08:39:50.090Z,101302.19
2022-12-20T08:44:07.216Z,101288.91
2022-12-20T08:48:23.729Z,101296.94
2022-12-20T08:52:40.433Z,101295.38
2022-12-20T08:56:56.651Z,101299.22
2022-12-20T09:01:17.965Z,101294.91
2022-12-20T09:05:34.150Z,101290.44
2022-12-20T09:09:50.455Z,101291.94
2022-12-20T09:14:08.361Z,101286.25
2022-12-20T09:18:24.454Z,101282.75
2022-12-20T09:22:40.593Z,101280.91
2022-12-20T09:26:56.813Z,101263.28
2022-12-20T09:31:15.789Z,101251.66
2022-12-20T09:35:33.708Z,101243.94
2022-12-20T09:39:53.237Z,101252.97
2022-12-20T09:44:31.842Z,101235.41
2022-12-20T09:48:48.399Z,101237.09
2022-12-20T09:53:20.295Z,101245.25
2022-12-20T09:58:08.981Z,101230.69
2022-12-20T10:02:55.531Z,101233.69
2022-12-20T10:07:14.580Z,101207.06
2022-12-20T10:11:51.480Z,101206.16
2022-12-20T10:16:34.985Z,101215.22
2022-12-20T10:21:16.283Z,101207.19
2022-12-20T10:25:34.471Z,101213.19
2022-12-20T10:29:51.129Z,101193.84
2022-12-20T10:34:08.116Z,101180.28
2022-12-20T10:38:24.926Z,101174.06
2022-12-20T10:42:43.452Z,101167.88
2022-12-20T10:47:01.585Z,101176.09
2022-12-20T10:51:24.785Z,101169.22
2022-12-20T10:55:44.561Z,101150.69
2022-12-20T11:00:04.244Z,101133.31
2022-12-20T11:04:32.542Z,101124.72
2022-12-20T11:08:55.367Z,101110.09
2022-12-20T11:13:26.110Z,101108.16
2022-12-20T11:17:49.041Z,101104.25
2022-12-20T11:22:17.453Z,101098.44
2022-12-20T11:27:04.015Z,101082.19
2022-12-20T11:31:41.601Z,101079.03
2022-12-20T11:36:18.164Z,101079.16
2022-12-20T11:40:39.156Z,101063.97
2022-12-20T11:45:08.817Z,101058.75
2022-12-20T11:49:50.949Z,101057.09
2022-12-20T11:54:13.798Z,101053.69
2022-12-20T11:58:40.388Z,101060.56
2022-12-20T12:03:28.980Z,101042.94
2022-12-20T12:07:47.985Z,101051.47
2022-12-20T12:12:22.275Z,101046.72
2022-12-20T12:16:40.965Z,101022.12
2022-12-20T12:21:13.914Z,101021.72
2022-12-20T12:25:30.188Z,101020.47
2022-12-20T12:29:46.433Z,101005.28
2022-12-20T12:34:39.436Z,101020.66
2022-12-20T12:39:39.604Z,101010.28
2022-12-20T12:43:58.934Z,101015.44
2022-12-20T12:48:20.748Z,101010.25
2022-12-20T12:52:51.617Z,101001.31
2022-12-20T12:57:18.939Z,100999.63
2022-12-20T13:02:19.902Z,100996.16
2022-12-20T13:06:38.523Z,100997.50
2022-12-20T13:10:57.267Z,100960.59
2022-12-20T13:15:22.463Z,100952.53
2022-12-20T13:19:39.418Z,100962.47
2022-12-20T13:24:29.889Z,100952.00
2022-12-20T13:43:51.203Z,100959.16
2022-12-20T13:48:11.673Z,100952.31
2022-12-20T13:52:44.520Z,100940.72
2022-12-20T13:57:00.728Z,100944.53
2022-12-20T14:01:17.103Z,100927.63
2022-12-20T14:05:40.218Z,100917.94
2022-12-20T14:10:01.956Z,100912.91
2022-12-20T14:14:18.177Z,100912.06
2022-12-20T14:18:34.386Z,100919.63
2022-12-20T14:23:22.081Z,100914.50
2022-12-20T14:27:38.859Z,100925.97
2022-12-20T14:31:55.185Z,100917.72
2022-12-20T14:36:17.550Z,100923.78
2022-12-20T14:40:40.969Z,100924.50
2022-12-20T14:45:09.203Z,100924.66
2022-12-20T14:49:36.623Z,100910.50
2022-12-20T14:54:00.115Z,100900.84
2022-12-20T14:58:33.016Z,100897.06
2022-12-20T15:03:25.103Z,100918.75
2022-12-20T15:07:42.124Z,100930.38
2022-12-20T15:11:58.586Z,100934.34
2022-12-20T15:16:21.902Z,100930.91
2022-12-20T15:20:38.515Z,100932.69
2022-12-20T15:24:54.749Z,100932.44
2022-12-20T15:29:33.229Z,100929.34
2022-12-20T15:33:50.700Z,100918.56
2022-12-20T15:38:09.921Z,100920.25
2022-12-20T15:42:26.196Z,100936.66
2022-12-20T15:46:43.024Z,100944.72
2022-12-20T15:51:00.234Z,100932.47
2022-12-20T15:55:16.456Z,100935.63
2022-12-20T16:04:13.935Z,100900.53
2022-12-20T16:08:31.096Z,100901.81
2022-12-20T16:12:47.325Z,100906.78
2022-12-20T16:17:05.618Z,100901.72
2022-12-20T16:21:24.773Z,100905.09
2022-12-20T16:25:40.997Z,100896.72
2022-12-20T16:29:57.350Z,100890.28
2022-12-20T16:34:16.019Z,100913.22
2022-12-20T16:38:32.233Z,100908.25
2022-12-20T16:42:51.322Z,100898.78
2022-12-20T16:47:07.598Z,100886.59
2022-12-20T16:51:27.251Z,100898.19
2022-12-20T16:55:43.528Z,100894.84
2022-12-20T16:59:59.926Z,100890.34
2022-12-20T17:04:18.113Z,100891.75
2022-12-20T17:08:52.916Z,100883.50
2022-12-20T17:13:11.918Z,100892.16
2022-12-20T17:17:28.246Z,100884.72
2022-12-20T17:26:27.415Z,100887.41
2022-12-20T17:30:43.764Z,100882.53
2022-12-20T17:35:00.049Z,100881.66
2022-12-20T17:39:16.940Z,100876.84
2022-12-20T17:43:33.162Z,100878.09
2022-12-20T17:47:49.733Z,100871.19
2022-12-20T17:52:06.104Z,100873.44
2022-12-20T17:56:33.197Z,100858.91
2022-12-20T18:00:50.557Z,100860.44
2022-12-20T18:05:07.725Z,100849.75
2022-12-20T18:09:23.949Z,100853.66
2022-12-20T18:13:44.762Z,100843.22
2022-12-20T18:18:01.018Z,100834.59
2022-12-20T18:22:17.386Z,100844.72
2022-12-20T18:26:35.121Z,100843.25
2022-12-20T18:30:51.425Z,100842.44
2022-12-20T18:35:08.365Z,100820.03
2022-12-20T18:39:24.683Z,100821.78
2022-12-20T18:43:41.089Z,100816.63
2022-12-20T18:47:57.358Z,100830.84
2022-12-20T18:52:16.524Z,100828.06
2022-12-20T18:56:36.711Z,100809.69
2022-12-20T19:00:56.804Z,100814.56
2022-12-20T19:05:13.120Z,100810.47
2022-12-20T19:09:29.372Z,100794.19
2022-12-20T19:13:45.845Z,100789.91
2022-12-20T19:18:02.272Z,100794.94
2022-12-20T19:22:18.613Z,100793.47
2022-12-20T19:26:36.687Z,100792.16
2022-12-20T19:30:53.026Z,100796.94
2022-12-20T19:35:37.429Z,100800.28
2022-12-20T19:39:45.713Z,100810.25
2022-12-20T19:44:02.273Z,100820.34
2022-12-20T19:48:18.773Z,100831.47
2022-12-20T19:52:35.216Z,100823.72
2022-12-20T19:56:51.412Z,100832.41
2022-12-20T20:01:09.171Z,100835.84
2022-12-20T20:05:25.383Z,100829.28
2022-12-20T20:09:41.613Z,100820.16
2022-12-20T20:13:57.975Z,100816.59
2022-12-20T20:18:14.204Z,100816.03
2022-12-20T20:22:30.452Z,100817.97
2022-12-20T20:26:46.698Z,100814.38
2022-12-20T20:31:03.899Z,100793.50
2022-12-20T20:35:20.279Z,100793.09
2022-12-20T20:39:36.541Z,100788.81
2022-12-20T20:43:53.034Z,100783.97
2022-12-20T20:48:09.767Z,100769.03
2022-12-20T20:52:26.017Z,100771.38
2022-12-20T20:56:42.362Z,100775.56
2022-12-20T21:01:00.516Z,100764.88
2022-12-20T21:06:06.221Z,100775.16
2022-12-20T21:09:53.820Z,100767.91
2022-12-20T21:14:11.303Z,100765.41
2022-12-20T21:18:27.577Z,100774.06
2022-12-20T21:22:44.048Z,100762.63
2022-12-20T21:27:00.318Z,100751.22
2022-12-20T21:31:18.660Z,100740.03
2022-12-20T21:35:34.938Z,100738.13
2022-12-20T21:39:51.635Z,100720.53
2022-12-20T21:44:07.987Z,100720.97
2022-12-20T21:48:25.101Z,100708.37
2022-12-20T21:52:42.073Z,100714.16
2022-12-20T21:56:58.545Z,100699.59
2022-12-20T22:01:17.212Z,100711.97
2022-12-20T22:05:33.489Z,100710.22
2022-12-20T22:09:49.730Z,100701.97
2022-12-20T22:14:06.961Z,100681.75
2022-12-20T22:18:24.287Z,100684.19
2022-12-20T22:22:41.321Z,100675.16
2022-12-20T22:26:57.644Z,100660.81
2022-12-20T22:31:14.648Z,100648.66
2022-12-20T22:35:31.072Z,100648.19
2022-12-20T22:39:49.500Z,100639.63
2022-12-20T22:44:05.864Z,100632.44
2022-12-20T22:48:22.159Z,100639.69
2022-12-20T22:52:38.412Z,100627.03
2022-12-20T22:56:54.592Z,100629.72
2022-12-20T23:01:13.099Z,100624.84
2022-12-20T23:05:29.364Z,100617.16
2022-12-20T23:09:45.495Z,100614.34
2022-12-20T23:14:20.308Z,100606.53
2022-12-20T23:18:36.499Z,100609.28
2022-12-20T23:22:53.044Z,100602.94
2022-12-20T23:27:09.254Z,100599.22
2022-12-20T23:31:25.511Z,100591.62
2022-12-20T23:35:42.115Z,100601.31
2022-12-20T23:39:58.356Z,100583.91
2022-12-20T23:44:14.637Z,100583.91
2022-12-20T23:48:31.393Z,100575.63
2022-12-20T23:52:47.621Z,100574.62
2022-12-20T23:57:03.889Z,100557.66
